Station: Adelaide Airport

  Atmospheric Gas Attenuation - ITU Rec 676-11   --------------- db/100km ---------------
Date Time Temp RH % AH g/m3 Dew Point Wind Direction Speed kph Gust kph Barometer mB Rainfall Since 9am 24GHz 47GHz 76GHz 122GHz 134GHz 241GHz
15 00:40 11.9 86 9.11 9.6 20 22 1016.4 0.8 20.8 27.4 43.0 113.0 108.1 372.2
15 00:30 12 87 9.27 9.9 17 19 1016.4 0.8 21.1 27.7 43.7 114.7 110.2 379.5
15 00:20 12.3 87 9.45 10.2 17 20 1016.4 0.8 21.5 27.9 44.2 116.3 112.3 386.7
15 00:10 12.3 87 9.45 10.2 13 15 1016.4 0.8 21.5 27.9 44.2 116.3 112.3 386.7
15 00:00 12.2 87 9.39 10.1 11 13 1016.3 0.8 21.4 27.8 44.0 115.7 111.6 384.3
14 23:50 12.2 87 9.39 10.1 9 13 1016.2 0.8 21.4 27.8 44.0 115.7 111.5 384.2
14 23:40 12.1 88 9.44 10.2 13 15 1016.2 0.8 21.5 27.9 44.3 116.4 112.4 387.2
14 23:30 12 88 9.38 10.1 13 17 1016.2 0.8 21.3 27.9 44.1 115.9 111.7 384.8
14 23:20 12 87 9.27 9.9 15 15 1016.1 0.8 21.1 27.7 43.6 114.6 110.2 379.4
14 23:10 12 87 9.27 9.9 13 15 1016 0.8 21.1 27.7 43.6 114.6 110.2 379.3
14 23:00 12.1 87 9.33 10 13 13 1015.9 0.8 21.2 27.7 43.8 115.2 110.8 381.7
14 22:50 12.3 88 9.56 10.4 15 15 1015.9 0.8 21.7 28.1 44.7 117.5 113.7 391.9
14 22:40 12.5 87 9.57 10.4 11 11 1015.9 0.8 21.7 28.0 44.6 117.3 113.6 391.4
14 22:30 12.6 88 9.74 10.7 11 11 1015.8 0.8 22.1 28.3 45.3 119.0 115.8 399.2
14 22:20 12.6 90 9.96 11 11 11 1015.6 0.8 22.6 28.6 46.2 121.5 118.9 410.0
14 22:10 12.6 91 10.07 11.2 13 13 1015.6 0.8 22.8 28.8 46.7 122.8 120.4 415.4
14 22:00 12.8 91 10.19 11.4 13 17 1015.5 0.8 23.1 29.0 47.1 123.8 121.8 420.2
14 21:50 13 91 10.32 11.6 13 15 1015.5 0.8 23.3 29.1 47.5 125.0 123.3 425.6
14 21:40 13.1 90 10.27 11.5 15 17 1015.4 0.8 23.2 29.0 47.2 124.3 122.5 422.5
14 21:30 13.3 91 10.51 11.9 17 19 1015.4 0.8 23.7 29.3 48.2 126.7 125.5 433.3
14 21:20 13.4 94 10.93 12.5 13 15 1015.4 0.8 24.6 30.0 49.9 131.4 131.4 453.8
14 21:10 13.2 95 10.91 12.4 11 13 1015.3 0.8 24.6 30.1 50.0 131.5 131.5 453.9
14 21:00 13.2 95 10.91 12.4 6 6 1015.3 0.8 24.6 30.1 50.0 131.5 131.5 453.9
14 20:50 13 95 10.77 12.2 7 7 1015.2 0.8 24.3 29.9 49.5 130.2 129.8 448.0
14 20:40 12.7 94 10.46 11.8 4 6 1015.2 0.8 23.6 29.5 48.3 127.1 125.8 434.1
14 20:30 12.8 94 10.53 11.9 7 7 1015.2 0.8 23.8 29.5 48.5 127.8 126.6 437.1
14 20:20 13 95 10.77 12.2 6 7 1015.2 0.8 24.3 29.9 49.5 130.2 129.8 448.0
14 20:10 12.1 93 9.97 11 7 7 1015 0.8 22.6 28.8 46.5 122.4 119.8 412.9
14 20:00 13.1 94 10.73 12.2 9 11 1015 0.8 24.2 29.8 49.2 129.6 129.0 445.3
14 19:50 13.2 94 10.79 12.3 9 11 1014.9 0.8 24.3 29.9 49.4 130.1 129.7 447.8
14 19:40 13.2 93 10.68 12.1 9 9 1014.8 0.8 24.1 29.7 48.9 128.8 128.1 442.2
14 19:30 13.5 93 10.88 12.4 9 9 1014.8 0.8 24.5 29.9 49.6 130.6 130.5 450.5
14 19:20 13.5 93 10.88 12.4 9 9 1014.8 0.8 24.5 29.9 49.6 130.6 130.5 450.5
14 19:10 13.6 93 10.95 12.5 7 7 1014.7 0.8 24.6 30.0 49.9 131.3 131.3 453.4
14 19:00 13.9 93 11.15 12.8 7 7 1014.6 0.8 25.1 30.2 50.5 133.1 133.6 461.6
14 18:50 14.1 93 11.29 13 6 7 1014.6 0.8 25.3 30.4 51.0 134.4 135.3 467.5
14 18:40 13.8 93 11.08 12.7 7 7 1014.5 0.8 24.9 30.1 50.3 132.4 132.8 458.7
14 18:30 13.9 92 11.03 12.6 9 9 1014.4 0.8 24.8 30.0 50.0 131.6 131.9 455.5
14 18:20 13.8 92 10.96 12.5 4 6 1014.3 0.8 24.7 29.9 49.8 131.0 131.0 452.6
14 18:10 13.8 90 10.72 12.2 0 0 1014.2 0.8 24.1 29.5 48.7 128.2 127.6 440.5
14 18:00 14.6 90 11.26 13 0 0 1014.1 0.8 25.2 30.2 50.5 133.1 133.9 462.8
14 17:50 14.8 90 11.4 13.2 6 6 1014 0.8 25.5 30.3 51.0 134.4 135.6 468.5
14 17:40 14.9 90 11.47 13.3 6 7 1013.8 0.8 25.7 30.4 51.2 135.0 136.4 471.4
14 17:30 15 89 11.41 13.2 6 7 1013.7 0.8 25.5 30.3 50.9 134.1 135.3 467.7
14 17:20 15 88 11.28 13 7 7 1013.7 0.8 25.3 30.0 50.3 132.6 133.5 461.2
14 17:10 15.1 87 11.22 13 7 7 1013.7 0.8 25.1 29.9 50.0 131.7 132.4 457.6
14 17:00 15.2 87 11.29 13.1 7 7 1013.5 0.8 25.3 30.0 50.2 132.3 133.2 460.5
14 16:50 15.2 87 11.29 13.1 7 9 1013.4 0.8 25.3 30.0 50.2 132.3 133.2 460.4
14 16:40 15.1 87 11.22 13 9 11 1013.3 0.8 25.1 29.9 50.0 131.7 132.4 457.5
14 16:30 15.1 86 11.09 12.8 13 15 1013.3 0.8 24.9 29.7 49.4 130.2 130.5 451.1
14 16:20 15.4 86 11.3 13.1 15 15 1013.2 0.8 25.3 29.9 50.1 132.1 133.0 459.7
14 16:10 15.2 86 11.16 12.9 17 19 1013.1 0.8 25.0 29.7 49.7 130.8 131.3 453.9
14 16:00 15.6 84 11.17 12.9 19 22 1013 0.8 25.0 29.6 49.4 130.2 130.8 452.0
14 15:50 15.4 86 11.3 13.1 22 26 1013 0.8 25.3 29.9 50.1 132.0 133.0 459.6
14 15:40 15.8 84 11.31 13.1 20 26 1012.7 0.8 25.3 29.8 49.9 131.4 132.4 457.6
14 15:30 15.6 86 11.44 13.3 20 24 1012.5 0.8 25.6 30.1 50.6 133.3 134.6 465.1
14 15:20 15.2 82 10.64 12.1 30 32 1012.6 0.8 23.9 28.8 47.4 124.8 124.0 428.2
14 15:10 15.5 85 11.24 13 26 28 1012.6 0.8 25.2 29.8 49.8 131.1 131.9 455.9
14 15:00 15.8 85 11.44 13.3 19 20 1012.6 0.8 25.6 30.0 50.5 132.9 134.2 464.0
14 14:50 16.1 88 12.06 14.1 22 26 1012.6 0.8 26.9 31.0 53.0 139.6 142.5 493.0
14 14:40 16 89 12.13 14.2 15 17 1012.5 0.8 27.0 31.1 53.3 140.6 143.7 497.2
14 14:30 15.7 89 11.91 13.9 15 17 1012.5 0.8 26.6 30.9 52.6 138.5 141.1 488.0
14 14:20 15.4 89 11.69 13.6 17 20 1012.3 0.8 26.1 30.6 51.8 136.5 138.5 478.8
14 14:10 15.7 89 11.91 13.9 22 26 1012.2 0.8 26.6 30.8 52.6 138.5 141.1 487.9
14 14:00 16.1 87 11.92 13.9 20 26 1012.3 0.6 26.6 30.7 52.3 137.9 140.5 485.9
14 13:50 16.6 85 12.01 14.1 22 26 1012.3 0.6 26.7 30.7 52.4 138.1 140.8 487.2
14 13:40 17 87 12.59 14.8 26 30 1012.3 0.6 28.0 31.6 54.7 144.1 148.4 513.7
14 13:30 16.6 86 12.15 14.2 26 28 1012.3 0.4 27.0 30.9 53.0 139.7 142.8 494.2
14 13:20 16.5 89 12.5 14.7 20 30 1012.4 0.4 27.8 31.6 54.6 144.0 148.1 512.5
14 13:10 15.9 92 12.46 14.6 20 24 1012.5 0.4 27.7 31.8 54.9 144.7 148.7 514.6
14 13:00 15.3 91 11.88 13.8 22 24 1012.6 0.4 26.5 30.9 52.7 138.9 141.4 489.1
14 12:50 15.1 90 11.61 13.5 19 20 1012.6 0.4 26.0 30.5 51.7 136.1 137.9 476.7
14 12:40 15 90 11.54 13.4 22 26 1012.7 0.4 25.8 30.5 51.4 135.5 137.1 473.9
14 12:30 15.1 89 11.48 13.3 19 22 1012.9 0.4 25.7 30.3 51.1 134.6 136.1 470.3
14 12:20 15.2 88 11.42 13.2 26 30 1013 0.2 25.6 30.2 50.8 133.8 135.0 466.7
14 12:10 15.5 88 11.63 13.5 26 32 1013.1 0.2 26.0 30.5 51.5 135.7 137.5 475.4
14 12:00 15.4 89 11.69 13.6 28 33 1013.1 0.2 26.1 30.6 51.8 136.6 138.6 479.1
14 11:50 15 89 11.41 13.2 22 26 1013.1 0.2 25.5 30.2 50.9 134.0 135.3 467.5
14 11:40 14.5 90 11.19 12.9 9 11 1013.4 0.2 25.1 30.0 50.3 132.4 133.0 459.6
14 11:30 14.4 89 11 12.6 9 11 1013.5 0.2 24.7 29.8 49.5 130.3 130.5 450.8
14 11:20 14.6 88 11.01 12.6 19 22 1013.7 0.2 24.7 29.7 49.4 130.1 130.3 450.2
14 11:10 14.5 89 11.07 12.7 17 22 1013.7 0.2 24.8 29.8 49.8 131.0 131.3 453.7
14 11:00 14.4 89 11 12.6 19 19 1013.9 0.2 24.7 29.8 49.5 130.4 130.5 450.9
14 10:50 14.5 87 10.82 12.4 15 17 1013.9 0.2 24.3 29.4 48.7 128.1 127.8 441.4
14 10:40 14.7 85 10.7 12.2 17 19 1014 0.2 24.0 29.1 48.0 126.4 125.8 434.4
14 10:30 15 84 10.77 12.3 15 17 1014 0.2 24.2 29.2 48.2 126.8 126.3 436.1
14 10:20 15 86 11.03 12.7 20 22 1014.1 0.2 24.7 29.6 49.3 129.7 130.0 449.0
14 10:10 14.9 85 10.83 12.4 15 17 1014.1 0.2 24.3 29.3 48.5 127.6 127.3 439.7
14 10:00 15 84 10.77 12.3 15 17 1014.1 0.2 24.2 29.2 48.2 126.8 126.3 436.2
14 09:50 14.5 87 10.82 12.4 19 20 1014 0.2 24.3 29.4 48.7 128.2 127.8 441.4
14 09:40 14.3 87 10.69 12.2 19 22 1014 0.2 24.0 29.3 48.2 127.0 126.3 436.1
14 09:30 14.3 86 10.57 12 19 24 1014 0.2 23.8 29.1 47.7 125.6 124.6 430.2
14 09:20 14.5 84 10.45 11.8 17 22 1014 0 23.5 28.8 47.1 123.9 122.6 423.3
14 09:10 14.5 83 10.32 11.6 17 17 1014.1 0 23.2 28.6 46.6 122.5 120.8 417.0
14 09:00 14.5 84 10.45 11.8 17 20 1014.1 0 23.5 28.8 47.1 123.9 122.6 423.3
14 08:50 14.3 85 10.44 11.8 20 26 1014.1 9.8 23.5 28.8 47.2 124.1 122.8 423.9
14 08:40 14.3 85 10.44 11.8 20 22 1014 9.8 23.5 28.8 47.2 124.1 122.8 423.9
14 08:30 14.2 85 10.38 11.7 15 19 1014.1 9.8 23.4 28.8 47.0 123.6 122.1 421.5
14 08:20 14.2 85 10.38 11.7 19 19 1014 9.8 23.4 28.8 47.0 123.6 122.1 421.5
14 08:10 14.1 86 10.44 11.8 17 19 1014 9.8 23.5 28.9 47.3 124.5 123.1 425.0

Last Refresh: 15-Jun-2024 00:47:09

Bureau of Meteorology